createdAt,value
2023-03-28T00:02:10.538Z,0.79
2023-03-28T00:07:14.886Z,0.75
2023-03-28T00:12:17.848Z,0.72
2023-03-28T00:17:20.896Z,0.68
2023-03-28T00:22:24.184Z,0.65
2023-03-28T00:27:27.179Z,0.59
2023-03-28T00:32:30.160Z,0.51
2023-03-28T00:37:34.398Z,0.39
2023-03-28T00:42:42.952Z,0.27
2023-03-28T00:48:01.995Z,0.24
2023-03-28T00:53:23.582Z,0.20
2023-03-28T00:58:32.408Z,0.18
2023-03-28T01:03:37.607Z,0.19
2023-03-28T01:08:44.806Z,0.19
2023-03-28T01:13:53.115Z,0.18
2023-03-28T01:19:02.134Z,0.13
2023-03-28T01:24:30.068Z,0.07
2023-03-28T01:30:15.412Z,0.08
2023-03-28T01:35:44.634Z,0.04
2023-03-28T01:41:08.367Z,-0.02
2023-03-28T01:46:39.386Z,-0.04
2023-03-28T01:52:13.050Z,-0.02
2023-03-28T01:57:51.416Z,-0.02
2023-03-28T02:03:11.676Z,-0.02
2023-03-28T02:08:17.446Z,-0.01
2023-03-28T02:13:40.368Z,-0.05
2023-03-28T02:18:51.029Z,-0.09
2023-03-28T02:23:56.142Z,-0.11
2023-03-28T02:29:00.750Z,-0.15
2023-03-28T02:34:04.013Z,-0.17
2023-03-28T02:40:07.609Z,-0.17
2023-03-28T02:46:08.941Z,-0.13
2023-03-28T02:51:34.778Z,-0.10
2023-03-28T02:57:11.619Z,-0.06
2023-03-28T03:02:21.526Z,-0.06
2023-03-28T03:07:25.228Z,-0.07
2023-03-28T03:12:28.208Z,-0.12
2023-03-28T03:17:31.594Z,-0.12
2023-03-28T03:22:36.442Z,-0.14
2023-03-28T03:27:40.977Z,-0.14
2023-03-28T03:32:45.292Z,-0.16
2023-03-28T03:37:48.803Z,-0.18
2023-03-28T03:42:51.880Z,-0.22
2023-03-28T03:47:54.851Z,-0.22
2023-03-28T03:52:58.684Z,-0.26
2023-03-28T03:58:03.162Z,-0.31
2023-03-28T04:03:06.431Z,-0.33
2023-03-28T04:08:09.577Z,-0.38
2023-03-28T04:13:12.720Z,-0.38
2023-03-28T04:18:20.472Z,-0.40
2023-03-28T04:23:26.572Z,-0.47
2023-03-28T04:28:29.599Z,-0.52
2023-03-28T04:33:33.817Z,-0.45
2023-03-28T04:38:37.283Z,-0.45
2023-03-28T04:43:40.287Z,-0.47
2023-03-28T04:48:43.281Z,-0.45
2023-03-28T04:53:46.266Z,-0.38
2023-03-28T04:58:49.203Z,-0.34
2023-03-28T05:03:52.188Z,-0.24
2023-03-28T05:08:55.773Z,-0.16
2023-03-28T05:13:58.671Z,-0.12
2023-03-28T05:19:01.796Z,-0.06
2023-03-28T05:24:05.399Z,0.00
2023-03-28T05:29:08.313Z,0.07
2023-03-28T05:34:11.298Z,0.14
2023-03-28T05:39:14.906Z,0.21
2023-03-28T05:44:18.908Z,0.29
2023-03-28T05:49:22.604Z,0.36
2023-03-28T05:54:25.659Z,0.47
2023-03-28T05:59:28.571Z,0.57
2023-03-28T06:04:31.637Z,0.66
2023-03-28T06:09:35.215Z,0.76
2023-03-28T06:14:38.222Z,0.88
2023-03-28T06:19:41.377Z,1.00
2023-03-28T06:24:44.380Z,1.12
2023-03-28T06:29:47.304Z,1.26
2023-03-28T06:34:50.817Z,1.36
2023-03-28T06:39:54.308Z,1.50
2023-03-28T06:44:57.343Z,1.66
2023-03-28T06:50:00.302Z,1.76
2023-03-28T06:55:04.147Z,1.86
2023-03-28T07:00:08.545Z,1.98
2023-03-28T07:05:11.599Z,2.04
2023-03-28T07:10:14.563Z,2.11
2023-03-28T07:15:19.435Z,2.31
2023-03-28T07:20:23.419Z,2.49
2023-03-28T07:25:26.913Z,2.71
2023-03-28T07:30:29.794Z,2.92
2023-03-28T07:35:32.893Z,3.11
2023-03-28T07:40:36.293Z,3.19
2023-03-28T07:45:40.026Z,3.23
2023-03-28T07:50:43.221Z,3.38
2023-03-28T07:55:54.541Z,3.35
2023-03-28T08:01:08.739Z,3.70
2023-03-28T08:06:28.596Z,4.06
2023-03-28T08:11:36.477Z,4.43
2023-03-28T08:16:40.545Z,4.49
2023-03-28T08:21:43.815Z,5.08
2023-03-28T08:26:48.742Z,5.69
2023-03-28T08:31:51.864Z,6.17
2023-03-28T08:36:54.927Z,6.24
2023-03-28T08:42:16.330Z,6.32
2023-03-28T08:47:30.918Z,6.12
2023-03-28T08:52:34.883Z,6.34
2023-03-28T08:57:41.094Z,6.85
2023-03-28T09:02:44.626Z,7.36
2023-03-28T09:08:01.592Z,7.10
2023-03-28T09:13:40.843Z,7.02
2023-03-28T09:18:56.671Z,7.13
2023-03-28T09:24:26.228Z,7.53
2023-03-28T09:29:32.413Z,7.70
2023-03-28T09:34:44.259Z,7.08
2023-03-28T09:39:52.297Z,6.78
2023-03-28T09:45:19.776Z,6.90
2023-03-28T09:50:23.026Z,6.90
2023-03-28T09:55:30.240Z,7.36
2023-03-28T10:00:50.880Z,7.66
2023-03-28T10:05:53.850Z,7.74
2023-03-28T10:11:07.049Z,7.62
2023-03-28T10:16:25.942Z,7.35
2023-03-28T10:21:32.444Z,7.55
2023-03-28T10:26:35.865Z,7.24
2023-03-28T10:31:39.770Z,6.74
2023-03-28T10:36:44.066Z,6.09
2023-03-28T10:42:01.866Z,5.91
2023-03-28T10:47:18.663Z,6.07
2023-03-28T10:52:39.874Z,6.80
2023-03-28T10:58:09.909Z,7.79
2023-03-28T11:03:23.933Z,8.49
2023-03-28T11:09:31.835Z,8.73
2023-03-28T11:15:05.862Z,8.27
2023-03-28T11:20:51.864Z,8.49
2023-03-28T11:26:03.824Z,9.20
2023-03-28T11:31:17.470Z,9.51
2023-03-28T11:36:38.982Z,9.27
2023-03-28T11:41:44.453Z,9.10
2023-03-28T11:47:08.863Z,9.27
2023-03-28T11:52:34.947Z,9.60
2023-03-28T11:58:00.885Z,9.68
2023-03-28T12:03:30.467Z,9.22
2023-03-28T12:08:51.976Z,9.15
2023-03-28T12:14:26.447Z,9.04
2023-03-28T12:19:39.496Z,8.69
2023-03-28T12:25:06.222Z,8.83
2023-03-28T12:30:36.246Z,8.89
2023-03-28T12:35:46.891Z,9.12
2023-03-28T12:41:07.295Z,9.08
2023-03-28T12:46:18.455Z,8.94
2023-03-28T12:51:38.989Z,8.74
2023-03-28T12:57:04.110Z,8.65
2023-03-28T13:02:19.494Z,8.62
2023-03-28T13:07:47.441Z,8.53
2023-03-28T13:13:59.279Z,8.32
2023-03-28T13:19:17.159Z,8.38
2023-03-28T13:24:41.881Z,8.37
2023-03-28T13:29:51.720Z,8.03
2023-03-28T13:34:59.956Z,7.83
2023-03-28T13:40:05.632Z,7.06
2023-03-28T13:45:23.506Z,6.41
2023-03-28T13:50:32.743Z,6.04
2023-03-28T13:55:36.075Z,5.94
2023-03-28T14:00:39.598Z,6.00
2023-03-28T14:05:45.839Z,6.25
2023-03-28T14:10:52.236Z,6.42
2023-03-28T14:15:56.042Z,6.35
2023-03-28T14:21:00.617Z,6.34
2023-03-28T14:26:18.410Z,6.47
2023-03-28T14:31:38.487Z,6.79
2023-03-28T14:37:18.698Z,6.97
2023-03-28T14:42:23.960Z,7.07
2023-03-28T14:47:33.376Z,7.06
2023-03-28T14:52:40.944Z,6.96
2023-03-28T14:57:46.408Z,7.21
2023-03-28T15:02:52.371Z,7.15
2023-03-28T15:08:02.481Z,6.90
2023-03-28T15:13:23.439Z,6.78
2023-03-28T15:18:34.150Z,6.90
2023-03-28T15:23:56.913Z,7.18
2023-03-28T15:29:01.009Z,7.18
2023-03-28T15:34:11.371Z,7.11
2023-03-28T15:39:25.698Z,6.89
2023-03-28T15:44:38.588Z,6.36
2023-03-28T15:49:41.606Z,6.04
2023-03-28T15:54:54.310Z,5.81
2023-03-28T16:00:00.880Z,5.68
2023-03-28T16:05:34.925Z,5.35
2023-03-28T16:10:39.985Z,5.06
2023-03-28T16:15:43.698Z,4.75
2023-03-28T16:20:47.054Z,4.45
2023-03-28T16:25:50.346Z,4.17
2023-03-28T16:30:53.331Z,3.94
2023-03-28T16:35:56.503Z,3.79
2023-03-28T16:40:59.702Z,3.71
2023-03-28T16:46:03.017Z,3.66
2023-03-28T16:51:06.978Z,3.60
2023-03-28T16:56:15.354Z,3.62
2023-03-28T17:01:21.475Z,3.55
2023-03-28T17:06:25.042Z,3.41
2023-03-28T17:11:28.366Z,3.26
2023-03-28T17:16:31.544Z,3.04
2023-03-28T17:21:35.069Z,2.84
2023-03-28T17:26:38.176Z,2.68
2023-03-28T17:31:40.996Z,2.55
2023-03-28T17:36:44.480Z,2.47
2023-03-28T17:41:48.099Z,2.38
2023-03-28T17:46:51.963Z,2.29
2023-03-28T17:51:56.736Z,2.21
2023-03-28T17:57:00.325Z,2.14
2023-03-28T18:02:04.198Z,2.05
2023-03-28T18:07:16.371Z,2.01
2023-03-28T18:12:21.469Z,1.97
2023-03-28T18:17:24.604Z,1.84
2023-03-28T18:22:28.280Z,1.74
2023-03-28T18:27:31.507Z,1.71
2023-03-28T18:32:36.616Z,1.73
2023-03-28T18:37:39.797Z,1.72
2023-03-28T18:42:43.083Z,1.72
2023-03-28T18:47:46.699Z,1.72
2023-03-28T18:52:49.844Z,1.68
2023-03-28T18:57:53.109Z,1.69
2023-03-28T19:02:56.496Z,1.64
2023-03-28T19:07:59.739Z,1.52
2023-03-28T19:13:03.053Z,1.44
2023-03-28T19:18:06.961Z,1.40
2023-03-28T19:23:10.361Z,1.40
2023-03-28T19:28:13.299Z,1.41
2023-03-28T19:33:16.435Z,1.46
2023-03-28T19:38:19.987Z,1.53
2023-03-28T19:43:24.393Z,1.51
2023-03-28T19:48:27.671Z,1.47
2023-03-28T19:53:31.312Z,1.41
2023-03-28T19:58:35.057Z,1.27
2023-03-28T20:03:38.503Z,1.21
2023-03-28T20:08:42.851Z,1.05
2023-03-28T20:13:47.188Z,0.99
2023-03-28T20:18:50.176Z,1.11
2023-03-28T20:23:54.519Z,1.24
2023-03-28T20:28:59.644Z,1.35
2023-03-28T20:34:03.186Z,1.30
2023-03-28T20:39:06.221Z,1.31
2023-03-28T20:44:09.493Z,1.40
2023-03-28T20:49:12.816Z,1.47
2023-03-28T20:54:16.255Z,1.40
2023-03-28T20:59:20.158Z,1.31
2023-03-28T21:04:23.871Z,1.32
2023-03-28T21:09:27.080Z,1.24
2023-03-28T21:14:30.523Z,1.11
2023-03-28T21:19:34.569Z,1.03
2023-03-28T21:24:37.545Z,0.95
2023-03-28T21:29:40.543Z,0.93
2023-03-28T21:34:44.825Z,0.84
2023-03-28T21:39:47.967Z,0.74
2023-03-28T21:44:52.054Z,0.72
2023-03-28T21:49:55.112Z,0.75
2023-03-28T21:54:58.096Z,0.77
2023-03-28T22:00:01.626Z,0.77
2023-03-28T22:05:15.519Z,0.79
2023-03-28T22:10:26.787Z,0.71
2023-03-28T22:15:31.671Z,0.69
2023-03-28T22:20:36.055Z,0.66
2023-03-28T22:25:39.489Z,0.66
2023-03-28T22:30:42.956Z,0.62
2023-03-28T22:35:49.491Z,0.53
2023-03-28T22:40:52.491Z,0.41
2023-03-28T22:45:56.648Z,0.34
2023-03-28T22:51:01.656Z,0.30
2023-03-28T22:56:06.628Z,0.20
2023-03-28T23:01:09.603Z,0.09
2023-03-28T23:06:13.234Z,-0.03
2023-03-28T23:11:16.222Z,-0.08
2023-03-28T23:16:19.249Z,-0.18
2023-03-28T23:21:23.054Z,-0.35
2023-03-28T23:26:26.504Z,-0.47
2023-03-28T23:31:29.713Z,-0.61
2023-03-28T23:36:32.877Z,-0.75
2023-03-28T23:41:35.843Z,-0.86
2023-03-28T23:46:39.634Z,-0.90
2023-03-28T23:51:42.908Z,-0.92
2023-03-28T23:56:46.358Z,-0.98
